Time;durP1;ratioP1;P1;durP2;ratioP2;P2;SDS_P1;SDS_P2;PMS_P1;PMS_P2;Temp;Humidity;BMP_temperature;BMP_pressure;BME280_temperature;BME280_humidity;BME280_pressure;Samples;Min_cycle;Max_cycle;Signal;HPM_P1;HPM_P2
2022/01/31 00:03:34;;;;;;;6.00;3.17;;;;;;;-1.93;88.10;100026.19;10359563;28;20042;-72
2022/01/31 00:08:34;;;;;;;4.82;3.00;;;;;;;-2.91;88.63;99878.78;10332055;28;20054;-72
2022/01/31 00:13:40;;;;;;;6.80;3.53;;;;;;;-2.78;88.90;99895.31;10331525;28;20069;-73
2022/01/31 00:18:40;;;;;;;5.80;3.40;;;;;;;-1.78;88.64;100050.41;10332611;28;20038;-72
2022/01/31 00:23:41;;;;;;;6.53;3.45;;;;;;;-2.72;88.08;99872.44;10331522;28;20053;-73
2022/01/31 00:28:42;;;;;;;8.65;3.72;;;;;;;-1.51;88.44;100044.38;10330863;28;20519;-73
2022/01/31 00:33:43;;;;;;;9.63;4.00;;;;;;;-2.22;88.47;99907.44;10330997;28;20141;-73
2022/01/31 00:38:44;;;;;;;5.85;3.53;;;;;;;-1.66;87.97;99999.31;10331794;28;20045;-73
2022/01/31 00:43:55;;;;;;;6.15;3.88;;;;;;;-1.46;88.98;100017.13;10329993;28;20509;-73
2022/01/31 00:48:56;;;;;;;9.23;3.58;;;;;;;-2.69;89.10;99817.66;10337379;28;20085;-73
2022/01/31 00:53:57;;;;;;;11.07;4.03;;;;;;;-1.38;89.43;100029.63;10338186;28;20588;-72
2022/01/31 00:58:58;;;;;;;7.45;3.90;;;;;;;-2.52;89.26;99846.03;10338880;28;20097;-73
2022/01/31 01:03:59;;;;;;;11.68;4.80;;;;;;;-1.80;90.88;99957.69;10338658;28;20046;-73
2022/01/31 01:09:00;;;;;;;9.43;4.05;;;;;;;-1.48;89.15;100002.50;10338274;28;20100;-73
2022/01/31 01:14:00;;;;;;;6.70;4.53;;;;;;;-1.46;89.70;100026.69;10337170;28;20525;-73
2022/01/31 01:19:03;;;;;;;7.28;4.13;;;;;;;-1.48;90.51;99990.31;10337231;28;20050;-73
2022/01/31 01:24:04;;;;;;;8.52;4.40;;;;;;;-2.16;90.28;99868.84;10337979;28;20038;-73
2022/01/31 01:29:05;;;;;;;7.75;3.75;;;;;;;-1.46;90.44;100011.06;10337542;28;20057;-73
2022/01/31 01:34:06;;;;;;;7.30;4.32;;;;;;;-2.19;90.37;99908.09;10337173;28;20045;-72
2022/01/31 01:39:07;;;;;;;6.82;3.88;;;;;;;-2.00;90.45;99912.97;10337730;28;20521;-73
2022/01/31 01:44:08;;;;;;;9.23;4.10;;;;;;;-2.44;89.54;99840.34;10336223;28;20038;-74
2022/01/31 01:49:09;;;;;;;8.93;4.35;;;;;;;-2.35;90.72;99870.97;10336768;28;20129;-73
2022/01/31 01:54:09;;;;;;;8.07;4.45;;;;;;;-2.14;90.61;99879.19;10344142;28;20100;-73
2022/01/31 01:59:10;;;;;;;9.88;4.80;;;;;;;-2.18;91.04;99872.53;10335172;28;20391;-73
2022/01/31 02:04:11;;;;;;;8.95;4.22;;;;;;;-1.50;90.33;99999.16;10372592;28;20061;-73
2022/01/31 02:09:12;;;;;;;10.25;4.55;;;;;;;-1.75;91.71;99973.88;10376111;28;20046;-73
2022/01/31 02:14:13;;;;;;;8.82;4.65;;;;;;;-1.58;92.27;100002.28;10338268;28;20070;-73
2022/01/31 02:19:16;;;;;;;8.40;4.70;;;;;;;-1.63;91.89;100006.94;10335063;28;20041;-73
2022/01/31 02:24:17;;;;;;;8.27;4.55;;;;;;;-1.70;92.07;99990.88;10335603;28;20088;-73
2022/01/31 02:29:18;;;;;;;8.55;4.60;;;;;;;-2.69;92.40;99833.25;10336082;28;20061;-73
2022/01/31 02:34:19;;;;;;;11.43;5.00;;;;;;;-2.39;92.48;99904.16;10335312;28;20050;-73
2022/01/31 02:39:20;;;;;;;8.10;4.57;;;;;;;-1.96;91.58;99989.09;10335213;28;20045;-72
2022/01/31 02:44:21;;;;;;;8.82;4.53;;;;;;;-2.46;91.73;99931.47;10334628;28;20066;-73
2022/01/31 02:49:25;;;;;;;8.90;4.45;;;;;;;-2.24;91.36;100011.66;10350932;28;20045;-74
2022/01/31 02:54:29;;;;;;;10.57;4.38;;;;;;;-2.53;92.08;99983.03;10375368;28;20049;-72
2022/01/31 02:59:31;;;;;;;8.23;4.88;;;;;;;-2.65;92.83;99962.16;10373986;28;20045;-73
2022/01/31 03:04:32;;;;;;;13.23;4.68;;;;;;;-2.97;93.59;99868.75;10373841;28;20108;-73
2022/01/31 03:09:33;;;;;;;9.40;4.40;;;;;;;-1.97;93.70;100016.06;10380809;28;20041;-72
2022/01/31 03:14:33;;;;;;;9.40;4.63;;;;;;;-1.92;93.41;100001.81;10414494;28;20421;-72
2022/01/31 03:19:38;;;;;;;10.52;4.97;;;;;;;-2.61;93.64;99896.00;10414653;28;20417;-72
2022/01/31 03:24:42;;;;;;;9.00;4.50;;;;;;;-2.15;93.15;99997.22;10413857;28;20045;-72
2022/01/31 03:29:43;;;;;;;9.55;4.57;;;;;;;-2.48;92.63;99974.97;10413402;28;20046;-72
2022/01/31 03:34:44;;;;;;;15.85;5.50;;;;;;;-2.34;92.94;100003.53;10410376;28;20045;-74
2022/01/31 03:39:45;;;;;;;11.13;5.00;;;;;;;-2.33;93.01;99999.22;10408529;28;20397;-74
2022/01/31 03:44:47;;;;;;;10.02;4.65;;;;;;;-3.23;92.98;99833.94;10409065;28;20041;-73
2022/01/31 03:49:50;;;;;;;11.13;4.85;;;;;;;-2.61;92.80;99925.44;10412209;28;20104;-73
2022/01/31 03:54:51;;;;;;;13.40;4.80;;;;;;;-2.45;92.32;99953.97;10392800;28;20057;-70
2022/01/31 03:59:52;;;;;;;14.82;4.45;;;;;;;-3.93;92.18;99712.66;10412960;28;20045;-72
2022/01/31 04:04:52;;;;;;;6.53;3.53;;;;;;;-2.74;91.83;99916.75;10412580;28;20044;-71
2022/01/31 04:09:53;;;;;;;7.38;4.07;;;;;;;-3.58;92.26;99782.38;10413024;28;20140;-72
2022/01/31 04:14:54;;;;;;;10.82;4.25;;;;;;;-3.44;92.55;99807.50;10412404;28;20071;-72
2022/01/31 04:19:55;;;;;;;12.40;4.78;;;;;;;-3.05;93.10;99864.03;10413847;28;20051;-73
2022/01/31 04:25:00;;;;;;;7.85;4.55;;;;;;;-2.54;92.85;99970.13;10422374;28;20045;-71
2022/01/31 04:30:05;;;;;;;9.88;5.03;;;;;;;-2.42;93.13;100017.94;10393806;28;20045;-71
2022/01/31 04:35:06;;;;;;;14.57;4.95;;;;;;;-2.44;92.96;99975.59;10369050;28;20054;-70
2022/01/31 04:40:13;;;;;;;16.05;5.43;;;;;;;-3.87;91.33;99729.63;10339511;28;20516;-72
2022/01/31 04:45:13;;;;;;;13.55;5.72;;;;;;;-3.69;92.40;99712.94;10339250;28;20049;-72
2022/01/31 04:50:14;;;;;;;10.80;5.85;;;;;;;-1.47;92.78;100030.22;10339420;28;20107;-71
2022/01/31 04:55:15;;;;;;;12.13;5.07;;;;;;;-1.24;90.62;100013.09;10342477;28;20042;-72
2022/01/31 05:00:16;;;;;;;16.95;6.78;;;;;;;-1.05;91.22;100023.97;10356375;28;20049;-73
2022/01/31 05:05:17;;;;;;;10.98;6.38;;;;;;;-1.03;91.11;99979.56;10377244;28;20490;-73
2022/01/31 05:10:18;;;;;;;20.35;6.63;;;;;;;-1.75;90.63;99834.09;10379091;28;20042;-73
2022/01/31 05:15:19;;;;;;;11.75;6.32;;;;;;;-1.18;90.77;99896.25;10378578;28;20145;-73
2022/01/31 05:20:20;;;;;;;14.73;6.93;;;;;;;-0.55;91.60;99951.91;10377762;28;20145;-73
2022/01/31 05:25:21;;;;;;;15.65;7.22;;;;;;;-0.46;91.43;99935.59;10378616;28;20128;-74
2022/01/31 05:30:23;;;;;;;16.67;7.93;;;;;;;-0.68;92.88;99878.06;10378385;28;20046;-74
2022/01/31 05:35:23;;;;;;;16.38;8.98;;;;;;;-0.13;93.11;99935.94;10376505;28;20041;-73
2022/01/31 05:40:24;;;;;;;15.00;7.38;;;;;;;-0.31;95.25;99867.59;10378242;28;20072;-73
2022/01/31 05:45:25;;;;;;;15.48;8.73;;;;;;;-0.11;96.06;99882.66;10377295;28;20044;-73
2022/01/31 05:50:27;;;;;;;15.18;7.82;;;;;;;0.40;96.76;99968.63;10377479;28;20402;-74
2022/01/31 05:55:28;;;;;;;15.23;8.00;;;;;;;-0.66;97.26;99794.47;10377320;28;20037;-73
2022/01/31 06:00:29;;;;;;;14.88;7.43;;;;;;;0.41;98.59;99967.66;10376759;28;20045;-73
2022/01/31 06:05:30;;;;;;;15.38;8.27;;;;;;;0.25;98.87;99934.97;10376678;28;20049;-74
2022/01/31 06:10:32;;;;;;;13.50;5.47;;;;;;;0.04;98.58;99872.06;10375797;28;20046;-72
2022/01/31 06:15:33;;;;;;;15.90;9.05;;;;;;;0.57;99.26;99951.72;10376542;28;20145;-73
2022/01/31 06:20:34;;;;;;;13.82;7.28;;;;;;;0.24;99.08;99845.31;10376037;28;20130;-73
2022/01/31 06:25:36;;;;;;;14.35;8.45;;;;;;;0.73;99.26;99912.19;10375793;28;20046;-74
2022/01/31 06:30:37;;;;;;;18.52;9.80;;;;;;;-0.08;98.93;99756.28;10374990;28;20042;-74
2022/01/31 06:35:37;;;;;;;20.67;9.60;;;;;;;0.67;98.84;99868.22;10375730;28;20052;-74
2022/01/31 06:40:39;;;;;;;17.27;9.73;;;;;;;1.06;99.03;99942.78;10374642;28;20131;-74
2022/01/31 06:45:40;;;;;;;22.42;10.90;;;;;;;1.07;99.21;99926.13;10374611;28;20034;-73
2022/01/31 06:50:41;;;;;;;18.33;10.35;;;;;;;0.75;99.11;99859.75;10375449;28;20489;-73
2022/01/31 06:55:42;;;;;;;19.27;10.65;;;;;;;1.01;99.72;99891.78;10374707;28;20038;-74
2022/01/31 07:00:43;;;;;;;22.45;11.35;;;;;;;0.83;99.08;99812.94;10374722;28;20087;-74
2022/01/31 07:05:45;;;;;;;20.88;10.35;;;;;;;0.38;99.08;99722.28;10373651;28;20120;-74
2022/01/31 07:10:51;;;;;;;19.95;10.70;;;;;;;1.39;98.59;99880.94;10372535;28;20482;-74
2022/01/31 07:15:52;;;;;;;16.42;9.00;;;;;;;1.10;98.92;99843.97;10374165;28;20064;-74
2022/01/31 07:20:53;;;;;;;22.25;11.60;;;;;;;1.39;98.90;99891.41;10373588;28;20038;-74
2022/01/31 07:25:55;;;;;;;19.75;10.18;;;;;;;1.60;98.53;99907.22;10373669;28;20042;-73
2022/01/31 07:30:57;;;;;;;20.30;11.20;;;;;;;1.58;98.04;99891.63;10373989;28;20041;-74
2022/01/31 07:35:57;;;;;;;25.52;12.32;;;;;;;1.64;98.09;99886.84;10373221;28;20304;-74
2022/01/31 07:40:59;;;;;;;19.75;10.20;;;;;;;1.49;98.02;99836.56;10373053;28;20040;-74
2022/01/31 07:46:00;;;;;;;17.60;9.60;;;;;;;1.41;97.11;99820.63;10372772;28;20041;-74
2022/01/31 07:51:01;;;;;;;22.52;10.73;;;;;;;0.28;97.34;99629.09;10372232;28;20042;-74
2022/01/31 07:56:04;;;;;;;21.67;11.32;;;;;;;0.25;96.97;99604.03;10372002;28;20073;-74
2022/01/31 08:01:05;;;;;;;19.38;9.50;;;;;;;1.98;96.90;99857.00;10372556;28;20084;-73
2022/01/31 08:06:06;;;;;;;20.30;10.93;;;;;;;1.17;97.07;99703.03;10372259;28;20478;-74
2022/01/31 08:11:08;;;;;;;20.83;13.00;;;;;;;1.74;96.60;99749.84;10372354;28;20069;-74
2022/01/31 08:21:13;;;;;;;21.65;10.13;;;;;;;2.64;94.92;99822.69;10371606;28;20049;-74
2022/01/31 08:26:17;;;;;;;17.23;9.20;;;;;;;2.27;93.09;99767.28;10371619;28;20148;-74
2022/01/31 08:31:24;;;;;;;15.10;8.68;;;;;;;2.08;91.59;99714.78;10371275;28;20042;-74
2022/01/31 08:36:26;;;;;;;15.75;7.60;;;;;;;1.81;90.63;99651.47;10371798;28;20077;-74
2022/01/31 08:41:28;;;;;;;14.98;7.93;;;;;;;2.69;91.90;99820.53;10372393;28;20112;-74
2022/01/31 08:46:28;;;;;;;20.50;11.20;;;;;;;2.61;92.32;99809.84;10371842;28;20042;-74
2022/01/31 08:51:29;;;;;;;17.38;10.38;;;;;;;1.94;92.89;99693.16;10372111;28;20489;-74
2022/01/31 08:56:35;;;;;;;18.63;10.00;;;;;;;2.70;92.42;99795.97;10371887;28;20045;-74
2022/01/31 09:01:35;;;;;;;23.02;12.05;;;;;;;1.34;92.21;99562.03;10370843;28;20081;-74
2022/01/31 09:06:36;;;;;;;23.33;13.07;;;;;;;2.83;92.16;99780.00;10372247;28;20074;-74
2022/01/31 09:11:37;;;;;;;17.45;10.82;;;;;;;2.35;90.75;99701.13;10378444;28;20045;-74
2022/01/31 09:16:38;;;;;;;20.70;11.15;;;;;;;1.42;91.08;99550.94;10377440;28;20065;-74
2022/01/31 09:21:39;;;;;;;26.88;14.20;;;;;;;1.81;91.92;99630.53;10377742;28;20140;-74
2022/01/31 09:26:40;;;;;;;22.17;10.80;;;;;;;1.88;91.36;99637.88;10378201;28;20045;-74
2022/01/31 09:31:41;;;;;;;20.75;10.73;;;;;;;2.73;91.07;99756.34;10377288;28;20045;-74
2022/01/31 09:36:41;;;;;;;25.08;12.27;;;;;;;2.12;91.36;99664.59;10377924;28;20049;-75
2022/01/31 09:41:45;;;;;;;22.17;13.20;;;;;;;1.57;91.56;99567.16;10377793;28;20088;-74
2022/01/31 09:47:06;;;;;;;22.13;10.55;;;;;;;2.50;91.57;99705.06;10376878;28;20125;-74
2022/01/31 09:52:06;;;;;;;20.00;11.20;;;;;;;2.50;92.10;99705.88;10376711;28;20038;-74
2022/01/31 09:57:07;;;;;;;21.35;10.98;;;;;;;2.45;92.04;99704.59;10376909;28;20509;-74
2022/01/31 10:02:14;;;;;;;21.83;11.68;;;;;;;2.90;91.88;99735.69;10377417;28;20556;-74
2022/01/31 10:07:17;;;;;;;20.60;10.52;;;;;;;2.94;91.94;99730.06;10376788;28;20140;-74
2022/01/31 10:17:34;;;;;;;19.42;11.35;;;;;;;2.65;91.25;99608.50;10376898;28;20062;-74
2022/01/31 10:22:38;;;;;;;22.67;11.30;;;;;;;3.24;91.12;99685.50;10375355;28;20498;-74
2022/01/31 10:27:45;;;;;;;19.13;10.52;;;;;;;3.51;90.73;99690.88;10375999;28;20037;-74
2022/01/31 10:32:48;;;;;;;18.65;10.60;;;;;;;3.04;89.48;99582.31;10375111;28;20543;-74
2022/01/31 10:37:54;;;;;;;16.45;8.85;;;;;;;3.47;88.58;99626.50;10375455;28;20049;-74
2022/01/31 10:53:54;;;;;;;15.30;8.97;;;;;;;4.01;86.63;99674.94;10375294;28;20034;-74
2022/01/31 10:59:02;;;;;;;15.85;9.82;;;;;;;4.29;86.56;99704.72;10374761;28;20042;-74
2022/01/31 11:04:06;;;;;;;17.35;8.63;;;;;;;3.49;85.62;99550.19;10374086;28;20037;-74
2022/01/31 11:09:10;;;;;;;15.07;9.00;;;;;;;3.76;85.23;99565.19;10374757;28;20077;-74
2022/01/31 11:14:13;;;;;;;17.48;8.35;;;;;;;3.74;84.66;99567.97;10373765;28;20563;-73
2022/01/31 11:19:18;;;;;;;14.65;8.63;;;;;;;3.05;84.45;99466.72;10374015;28;20521;-73
2022/01/31 11:24:26;;;;;;;15.15;8.13;;;;;;;4.58;83.51;99673.06;10372018;28;20049;-73
2022/01/31 11:29:27;;;;;;;12.40;7.35;;;;;;;4.14;82.93;99579.16;10373578;28;20424;-74
2022/01/31 11:34:29;;;;;;;13.02;7.68;;;;;;;4.82;81.97;99626.94;10372973;28;20085;-73
2022/01/31 11:39:30;;;;;;;13.52;7.30;;;;;;;5.01;81.83;99674.19;10372733;28;20045;-73
2022/01/31 11:44:51;;;;;;;12.77;7.43;;;;;;;4.84;82.33;99696.03;10373113;28;20037;-74
2022/01/31 11:50:05;;;;;;;13.05;6.60;;;;;;;4.66;82.25;99677.56;10374088;28;20038;-73
2022/01/31 11:55:10;;;;;;;13.30;7.10;;;;;;;4.01;82.91;99614.47;10372135;28;20513;-74
2022/01/31 12:00:13;;;;;;;12.95;7.38;;;;;;;4.33;83.42;99703.44;10372701;28;20038;-73
2022/01/31 12:05:21;;;;;;;14.35;7.78;;;;;;;4.27;83.84;99708.47;10372413;28;20096;-74
2022/01/31 12:10:32;;;;;;;13.45;7.60;;;;;;;3.66;83.52;99594.94;10372717;28;20054;-75
2022/01/31 12:26:35;;;;;;;13.07;8.10;;;;;;;4.30;85.00;99730.03;10371473;28;20041;-74
2022/01/31 12:31:45;;;;;;;12.93;7.25;;;;;;;4.40;84.59;99735.28;10358946;28;20132;-72
2022/01/31 12:36:52;;;;;;;11.77;7.38;;;;;;;4.34;84.05;99718.28;10361108;28;20053;-74
2022/01/31 12:42:00;;;;;;;15.88;7.80;;;;;;;3.82;84.25;99619.78;10375329;28;20069;-73
2022/01/31 12:47:18;;;;;;;20.40;6.97;;;;;;;4.49;83.05;99700.22;10365056;28;20074;-73
2022/01/31 12:52:34;;;;;;;10.77;6.80;;;;;;;4.88;82.56;99768.47;10326535;28;20521;-74
2022/01/31 12:57:46;;;;;;;12.35;7.78;;;;;;;4.92;82.86;99776.91;10379196;28;20046;-74
2022/01/31 13:02:50;;;;;;;14.95;8.25;;;;;;;4.74;82.48;99763.69;10379364;28;20420;-75
2022/01/31 13:07:52;;;;;;;15.03;8.63;;;;;;;4.73;83.60;99789.16;10378953;28;20141;-74
2022/01/31 13:13:00;;;;;;;14.00;7.32;;;;;;;4.67;82.66;99800.28;10378910;28;20042;-73
2022/01/31 13:18:06;;;;;;;14.27;7.22;;;;;;;2.96;82.55;99533.13;10373243;28;20152;-75
2022/01/31 13:23:07;;;;;;;11.98;6.85;;;;;;;4.35;83.14;99803.25;10397780;28;20124;-74
2022/01/31 13:28:09;;;;;;;11.30;7.18;;;;;;;3.29;82.90;99651.78;10396085;28;20077;-78
2022/01/31 13:33:10;;;;;;;10.10;6.88;;;;;;;4.18;83.08;99831.06;10396358;28;20092;-75
2022/01/31 13:38:12;;;;;;;14.25;7.85;;;;;;;3.48;83.51;99734.97;10394930;28;20085;-74
2022/01/31 13:43:25;;;;;;;14.70;8.20;;;;;;;3.77;83.86;99824.28;10388411;28;20069;-73
2022/01/31 13:49:09;;;;;;;20.65;11.65;;;;;;;3.94;84.02;99810.47;10386012;28;20061;-74
2022/01/31 13:54:08;;;;;;;13.90;8.23;;;;;;;3.08;84.39;99694.75;10378136;28;20052;-74
2022/01/31 13:59:09;;;;;;;38.72;16.00;;;;;;;3.24;84.07;99767.69;10392463;28;20046;-74
2022/01/31 14:04:11;;;;;;;32.50;16.25;;;;;;;3.62;84.83;99822.06;10376443;28;20029;-74
2022/01/31 14:09:12;;;;;;;25.42;12.35;;;;;;;2.84;84.98;99707.38;10354695;28;20053;-73
2022/01/31 14:14:15;;;;;;;19.70;7.57;;;;;;;3.48;84.80;99827.72;10398496;28;20402;-73
2022/01/31 14:19:16;;;;;;;16.95;10.43;;;;;;;2.05;85.37;99618.94;10376693;28;20045;-74
2022/01/31 14:24:19;;;;;;;17.08;11.23;;;;;;;3.30;85.77;99829.31;10376122;28;20044;-73
2022/01/31 14:29:19;;;;;;;31.60;23.23;;;;;;;2.60;85.53;99742.63;10376162;28;20045;-74
2022/01/31 14:34:23;;;;;;;16.98;9.80;;;;;;;3.28;86.15;99847.00;10376057;28;20504;-73
2022/01/31 14:50:32;;;;;;;24.00;14.63;;;;;;;2.85;86.84;99822.66;10375400;28;20048;-75
2022/01/31 14:55:41;;;;;;;20.05;9.77;;;;;;;2.77;87.57;99845.25;10374686;28;20041;-73
2022/01/31 15:00:44;;;;;;;15.73;9.13;;;;;;;2.28;87.24;99780.28;10373000;28;20521;-73
2022/01/31 15:05:45;;;;;;;21.33;9.68;;;;;;;2.87;87.00;99875.00;10378340;28;20042;-70
2022/01/31 15:10:47;;;;;;;16.48;9.70;;;;;;;1.56;86.61;99686.72;10355051;28;20060;-71
2022/01/31 15:15:54;;;;;;;14.18;9.32;;;;;;;2.67;87.37;99871.44;10390696;28;20421;-71
2022/01/31 15:20:59;;;;;;;16.27;8.77;;;;;;;2.76;87.78;99898.69;10395888;28;20042;-71
2022/01/31 15:25:59;;;;;;;20.48;9.68;;;;;;;2.57;87.63;99866.13;10355907;28;20042;-73
2022/01/31 15:31:00;;;;;;;15.65;9.85;;;;;;;2.26;88.06;99839.84;10343120;28;20044;-74
2022/01/31 15:36:03;;;;;;;17.17;9.20;;;;;;;2.08;87.59;99815.16;10378501;28;20382;-74
2022/01/31 15:41:04;;;;;;;17.88;9.63;;;;;;;2.17;87.71;99856.31;10385374;28;20489;-75
2022/01/31 15:46:06;;;;;;;16.83;9.43;;;;;;;1.60;87.66;99760.59;10371472;28;20133;-74
2022/01/31 15:51:07;;;;;;;15.30;8.40;;;;;;;2.58;88.21;99906.31;10345871;28;20038;-74
2022/01/31 15:56:09;;;;;;;14.75;8.63;;;;;;;2.57;88.10;99905.44;10374840;28;20046;-75
2022/01/31 16:01:12;;;;;;;15.52;9.43;;;;;;;2.44;87.77;99910.06;10381531;28;20156;-73
2022/01/31 16:06:13;;;;;;;15.90;8.65;;;;;;;2.13;88.28;99869.81;10375786;28;20040;-74
2022/01/31 16:11:14;;;;;;;17.63;10.68;;;;;;;2.70;87.97;99950.69;10362492;28;20053;-74
2022/01/31 16:16:15;;;;;;;47.45;20.40;;;;;;;2.63;87.47;99925.94;10377719;28;20061;-73
2022/01/31 16:21:16;;;;;;;38.50;19.17;;;;;;;2.78;87.82;99975.44;10384924;28;20458;-73
2022/01/31 16:26:17;;;;;;;29.52;17.10;;;;;;;2.54;87.11;99941.59;10385225;28;20038;-74
2022/01/31 16:31:18;;;;;;;17.25;9.82;;;;;;;2.68;87.10;99968.34;10368102;28;20050;-75
2022/01/31 16:36:21;;;;;;;17.00;9.95;;;;;;;2.44;87.46;99925.78;10381812;28;20049;-74
2022/01/31 16:41:22;;;;;;;18.48;9.65;;;;;;;0.17;87.29;99619.47;10381053;28;20375;-74
2022/01/31 16:46:24;;;;;;;17.40;10.18;;;;;;;1.37;87.06;99826.09;10383979;28;20037;-74
2022/01/31 16:51:25;;;;;;;18.67;11.68;;;;;;;2.38;88.09;100011.00;10387885;28;20041;-75
2022/01/31 16:56:26;;;;;;;17.50;10.23;;;;;;;1.54;88.60;99895.44;10390441;28;20505;-74
2022/01/31 17:01:28;;;;;;;17.73;9.82;;;;;;;2.17;88.47;100015.34;10381528;28;20457;-74
2022/01/31 17:06:29;;;;;;;16.90;10.70;;;;;;;-0.15;88.13;99658.47;10378474;28;20092;-74
2022/01/31 17:11:30;;;;;;;26.48;14.88;;;;;;;1.28;88.11;99915.78;10367172;28;20124;-74
2022/01/31 17:16:33;;;;;;;38.60;20.27;;;;;;;0.74;88.26;99869.41;10370691;28;20066;-75
2022/01/31 17:21:36;;;;;;;27.90;15.35;;;;;;;1.33;88.19;100010.50;10370291;28;20081;-74
2022/01/31 17:26:40;;;;;;;40.40;22.02;;;;;;;0.01;89.47;99807.00;10370330;28;20498;-74
2022/01/31 17:31:41;;;;;;;31.90;18.98;;;;;;;0.85;90.26;99981.03;10376783;28;20053;-74
2022/01/31 17:36:42;;;;;;;26.17;16.17;;;;;;;0.53;90.89;99937.19;10377658;28;20038;-75
2022/01/31 17:41:43;;;;;;;26.77;13.32;;;;;;;1.06;90.63;100023.03;10378058;28;20050;-74
2022/01/31 17:46:45;;;;;;;20.67;10.60;;;;;;;0.49;89.98;99966.28;10377606;28;20120;-74
2022/01/31 17:51:46;;;;;;;18.02;9.60;;;;;;;-0.17;90.06;99887.50;10377452;28;20045;-74
2022/01/31 17:56:50;;;;;;;15.25;8.73;;;;;;;0.77;90.47;100027.81;10376410;28;20133;-74
2022/01/31 18:01:51;;;;;;;20.40;10.07;;;;;;;0.77;90.95;100072.28;10376428;28;20482;-74
2022/01/31 18:06:52;;;;;;;15.50;9.15;;;;;;;-0.11;90.81;99918.41;10376614;28;20273;-74
2022/01/31 18:11:53;;;;;;;17.13;9.38;;;;;;;0.73;90.56;100055.97;10376048;28;20034;-74
2022/01/31 18:16:54;;;;;;;17.55;9.65;;;;;;;0.34;91.09;100023.13;10375765;28;20062;-74
2022/01/31 18:21:55;;;;;;;15.55;8.18;;;;;;;-1.02;90.62;99796.13;10361495;28;20049;-75
2022/01/31 18:26:56;;;;;;;69.70;28.58;;;;;;;0.50;91.49;100043.75;10393423;28;20549;-74
2022/01/31 18:31:59;;;;;;;39.67;21.33;;;;;;;0.08;91.01;99997.06;10393997;28;20389;-75
2022/01/31 18:37:00;;;;;;;20.02;10.50;;;;;;;-1.51;90.45;99758.69;10394970;28;20049;-74
2022/01/31 18:42:02;;;;;;;17.98;9.88;;;;;;;-0.61;91.22;99918.41;10384146;28;20402;-74
2022/01/31 18:47:10;;;;;;;19.73;9.10;;;;;;;0.30;91.61;100051.25;10387552;28;20099;-74
2022/01/31 18:52:16;;;;;;;16.58;9.30;;;;;;;-2.12;91.25;99663.94;10387507;28;20041;-74
2022/01/31 18:57:17;;;;;;;17.55;9.02;;;;;;;-0.11;90.99;100020.22;10379617;28;20054;-73
2022/01/31 19:02:19;;;;;;;14.95;9.30;;;;;;;0.15;91.83;100050.56;10371539;28;20038;-74
2022/01/31 19:07:19;;;;;;;15.57;9.75;;;;;;;0.26;91.89;100062.00;10333365;28;20159;-73
2022/01/31 19:12:28;;;;;;;18.52;8.48;;;;;;;-1.56;91.96;99771.16;10333296;28;20046;-73
2022/01/31 19:17:30;;;;;;;14.90;9.32;;;;;;;-1.76;92.09;99743.06;10332297;28;20054;-73
2022/01/31 19:22:30;;;;;;;14.57;9.02;;;;;;;-0.73;91.82;99914.06;10332803;28;20514;-73
2022/01/31 19:27:31;;;;;;;17.90;9.95;;;;;;;-1.61;91.29;99784.53;10333713;28;20053;-73
2022/01/31 19:32:35;;;;;;;17.42;8.85;;;;;;;0.12;91.96;100063.84;10331808;28;20070;-73
2022/01/31 19:37:36;;;;;;;17.83;9.57;;;;;;;-0.21;91.81;100046.09;10333107;28;20054;-73
2022/01/31 19:47:55;;;;;;;15.30;8.50;;;;;;;-0.29;91.15;100075.38;10331876;28;20054;-73
2022/01/31 19:52:56;;;;;;;16.30;9.25;;;;;;;-0.53;91.50;100025.69;10332003;28;20038;-73
2022/01/31 19:57:57;;;;;;;15.77;9.00;;;;;;;-0.97;91.77;100000.84;10332192;28;20092;-74
2022/01/31 20:03:03;;;;;;;26.55;9.82;;;;;;;-1.26;92.08;99919.38;10331393;28;20043;-73
2022/01/31 20:08:06;;;;;;;17.27;9.38;;;;;;;-1.22;92.27;99933.88;10332440;28;20046;-73
2022/01/31 20:13:08;;;;;;;16.60;9.32;;;;;;;-1.63;91.87;99884.53;10331608;28;20117;-73
2022/01/31 20:18:11;;;;;;;21.05;10.82;;;;;;;-0.51;93.15;100109.94;10331086;28;20085;-73
2022/01/31 20:23:17;;;;;;;25.00;10.73;;;;;;;-0.42;93.17;100107.63;10332301;28;20046;-73
2022/01/31 20:28:20;;;;;;;18.70;9.85;;;;;;;-0.49;91.57;100094.97;10330869;28;20480;-73
2022/01/31 20:33:21;;;;;;;23.45;10.43;;;;;;;-0.62;92.19;100111.59;10331582;28;20490;-73
2022/01/31 20:38:33;;;;;;;20.38;11.25;;;;;;;-1.61;92.48;99989.44;10331030;28;20038;-73
2022/01/31 20:43:34;;;;;;;19.80;9.63;;;;;;;-1.69;92.64;99981.28;10331842;28;20068;-73
2022/01/31 20:48:35;;;;;;;19.85;10.68;;;;;;;-2.96;92.45;99789.88;10339279;28;20520;-73
2022/01/31 20:53:36;;;;;;;16.27;10.00;;;;;;;-0.65;92.47;100117.00;10334473;28;20044;-73
2022/01/31 20:58:37;;;;;;;18.45;10.43;;;;;;;-1.45;91.86;100007.53;10331315;28;20113;-73
2022/01/31 21:03:39;;;;;;;15.48;9.27;;;;;;;-1.70;92.71;99996.09;10334047;28;20076;-73
2022/01/31 21:08:46;;;;;;;22.13;10.98;;;;;;;-1.23;93.83;100072.09;10338630;28;20092;-73
2022/01/31 21:13:48;;;;;;;20.35;10.45;;;;;;;-0.99;92.95;100111.38;10336264;28;20144;-73
2022/01/31 21:18:49;;;;;;;16.70;9.65;;;;;;;-1.45;93.13;100062.22;10338789;28;20046;-73
2022/01/31 21:23:50;;;;;;;19.70;10.02;;;;;;;-1.58;92.97;100064.78;10339052;28;20057;-73
2022/01/31 21:28:51;;;;;;;17.92;10.10;;;;;;;-2.10;92.98;99962.16;10338403;28;20406;-73
2022/01/31 21:33:53;;;;;;;17.00;9.43;;;;;;;-1.09;93.57;100128.56;10337546;28;20046;-73
2022/01/31 21:38:54;;;;;;;19.58;9.77;;;;;;;-1.48;93.70;100080.66;10338063;28;20056;-73
2022/01/31 21:43:55;;;;;;;17.20;10.15;;;;;;;-1.03;94.29;100118.56;10336464;28;20129;-73
2022/01/31 21:48:55;;;;;;;24.02;11.43;;;;;;;-1.02;93.75;100132.44;10337005;28;20129;-72
2022/01/31 21:53:56;;;;;;;17.73;10.60;;;;;;;-0.93;94.64;100129.22;10336669;28;20069;-72
2022/01/31 21:58:57;;;;;;;18.85;10.85;;;;;;;-0.77;95.33;100136.91;10336575;28;20458;-73
2022/01/31 22:03:58;;;;;;;19.13;11.30;;;;;;;-0.68;95.24;100144.13;10335587;28;20042;-73
2022/01/31 22:09:00;;;;;;;21.55;11.68;;;;;;;-2.47;94.60;99836.19;10336370;28;20070;-72
2022/01/31 22:14:01;;;;;;;25.67;12.10;;;;;;;-1.29;94.94;100036.00;10334910;28;20050;-72
2022/01/31 22:19:01;;;;;;;24.10;12.52;;;;;;;-0.79;94.77;100097.88;10334780;28;20042;-72
2022/01/31 22:24:03;;;;;;;24.13;12.75;;;;;;;-0.96;95.29;100100.75;10336144;28;20057;-72
2022/01/31 22:29:04;;;;;;;25.15;12.98;;;;;;;-1.74;93.79;99981.56;10335259;28;20089;-72
2022/01/31 22:34:05;;;;;;;24.17;13.30;;;;;;;-1.63;95.00;100025.16;10334673;28;20100;-72
2022/01/31 22:39:06;;;;;;;24.08;12.88;;;;;;;-1.61;94.57;100034.56;10335069;28;20049;-72
2022/01/31 22:44:07;;;;;;;24.80;12.95;;;;;;;-0.80;94.73;100156.19;10333547;28;20049;-72
2022/01/31 22:49:08;;;;;;;29.17;12.82;;;;;;;-1.52;95.07;100060.97;10335741;28;20132;-72
2022/01/31 22:54:09;;;;;;;23.83;12.55;;;;;;;-1.25;94.60;100111.31;10334366;28;20128;-72
2022/01/31 22:59:10;;;;;;;24.52;12.30;;;;;;;-1.18;94.22;100150.84;10334236;28;20045;-72
2022/01/31 23:04:11;;;;;;;19.17;11.57;;;;;;;-1.57;94.31;100092.50;10334083;28;20042;-72
2022/01/31 23:09:12;;;;;;;31.17;11.55;;;;;;;-1.84;94.36;100074.22;10333887;28;20529;-72
2022/01/31 23:14:20;;;;;;;22.60;12.88;;;;;;;-2.04;94.87;100039.00;10332927;28;20066;-72
2022/01/31 23:20:09;;;;;;;25.40;13.18;;;;;;;-2.43;94.35;99980.69;10333553;28;20136;-72
